createdAt,value
2022-10-04T00:02:24.869Z,5.77
2022-10-04T00:05:16.345Z,5.33
2022-10-04T00:08:36.840Z,5.17
2022-10-04T00:11:29.313Z,6.40
2022-10-04T00:14:20.855Z,5.00
2022-10-04T00:17:14.014Z,5.40
2022-10-04T00:20:01.597Z,4.97
2022-10-04T00:23:25.501Z,5.10
2022-10-04T00:26:23.974Z,4.97
2022-10-04T00:29:35.510Z,4.77
2022-10-04T00:32:27.750Z,4.27
2022-10-04T00:35:26.730Z,4.20
2022-10-04T00:38:25.753Z,4.63
2022-10-04T00:41:13.681Z,4.20
2022-10-04T00:44:01.987Z,4.30
2022-10-04T00:46:51.658Z,3.77
2022-10-04T00:49:42.913Z,3.97
2022-10-04T00:52:34.889Z,4.00
2022-10-04T00:55:44.368Z,3.73
2022-10-04T00:58:38.248Z,4.30
2022-10-04T01:01:29.254Z,6.10
2022-10-04T01:04:27.715Z,5.13
2022-10-04T01:07:18.948Z,3.87
2022-10-04T01:10:14.517Z,4.83
2022-10-04T01:13:09.823Z,4.17
2022-10-04T01:16:17.785Z,4.83
2022-10-04T01:19:22.687Z,3.93
2022-10-04T01:22:18.066Z,4.97
2022-10-04T01:25:05.172Z,3.87
2022-10-04T01:27:52.743Z,5.37
2022-10-04T01:30:39.157Z,4.70
2022-10-04T01:33:25.950Z,4.07
2022-10-04T01:36:12.783Z,4.70
2022-10-04T01:38:59.656Z,5.60
2022-10-04T01:41:48.819Z,4.67
2022-10-04T01:44:51.161Z,6.00
2022-10-04T01:47:53.868Z,5.43
2022-10-04T01:50:47.484Z,5.37
2022-10-04T01:54:06.972Z,5.40
2022-10-04T01:56:59.100Z,4.47
2022-10-04T01:59:56.374Z,4.67
2022-10-04T02:02:55.292Z,6.00
2022-10-04T02:05:52.077Z,5.73
2022-10-04T02:08:45.728Z,6.00
2022-10-04T02:11:32.169Z,4.43
2022-10-04T02:14:22.180Z,4.50
2022-10-04T02:17:11.986Z,4.57
2022-10-04T02:20:01.515Z,4.40
2022-10-04T02:22:52.361Z,5.03
2022-10-04T02:25:39.225Z,5.93
2022-10-04T02:28:25.863Z,4.67
2022-10-04T02:31:31.153Z,4.13
2022-10-04T02:34:19.080Z,6.57
2022-10-04T02:37:07.626Z,4.73
2022-10-04T02:40:10.504Z,4.80
2022-10-04T02:43:03.571Z,4.47
2022-10-04T02:45:55.779Z,5.50
2022-10-04T02:48:56.489Z,6.43
2022-10-04T02:51:50.886Z,5.37
2022-10-04T02:54:45.942Z,5.43
2022-10-04T02:57:34.548Z,5.67
2022-10-04T03:00:23.052Z,5.23
2022-10-04T03:03:18.350Z,4.60
2022-10-04T03:06:12.472Z,5.57
2022-10-04T03:09:03.276Z,6.13
2022-10-04T03:11:51.138Z,5.03
2022-10-04T03:14:38.483Z,5.63
2022-10-04T03:17:25.561Z,4.10
2022-10-04T03:20:21.031Z,6.33
2022-10-04T03:23:09.720Z,5.77
2022-10-04T03:26:03.421Z,6.27
2022-10-04T03:28:50.502Z,7.60
2022-10-04T03:31:47.163Z,5.53
2022-10-04T03:34:37.297Z,5.10
2022-10-04T03:37:25.518Z,5.73
2022-10-04T03:40:12.499Z,7.53
2022-10-04T03:43:02.168Z,5.80
2022-10-04T03:45:49.266Z,6.07
2022-10-04T03:48:39.529Z,4.57
2022-10-04T03:51:27.148Z,6.03
2022-10-04T03:54:18.572Z,6.20
2022-10-04T03:57:06.337Z,6.67
2022-10-04T03:59:52.918Z,5.63
2022-10-04T04:02:56.416Z,6.00
2022-10-04T04:06:00.405Z,5.33
2022-10-04T04:08:51.855Z,5.80
2022-10-04T04:11:38.630Z,5.73
2022-10-04T04:14:27.449Z,5.93
2022-10-04T04:17:36.770Z,5.73
2022-10-04T04:20:36.664Z,5.40
2022-10-04T04:23:41.589Z,6.00
2022-10-04T04:26:43.614Z,5.33
2022-10-04T04:30:05.643Z,5.30
2022-10-04T04:32:56.643Z,6.27
2022-10-04T04:35:43.448Z,5.73
2022-10-04T04:38:29.957Z,5.53
2022-10-04T04:41:16.368Z,7.63
2022-10-04T04:44:04.056Z,5.20
2022-10-04T04:46:50.506Z,9.07
2022-10-04T04:49:40.107Z,7.63
2022-10-04T04:52:29.179Z,6.97
2022-10-04T04:55:39.886Z,6.00
2022-10-04T04:58:38.859Z,5.60
2022-10-04T05:01:35.238Z,6.60
2022-10-04T05:04:26.291Z,5.30
2022-10-04T05:07:19.613Z,5.50
2022-10-04T05:10:21.202Z,5.97
2022-10-04T05:13:11.140Z,6.80
2022-10-04T05:15:59.104Z,5.10
2022-10-04T05:18:46.338Z,5.33
2022-10-04T05:21:36.239Z,5.47
2022-10-04T05:24:31.762Z,5.07
2022-10-04T05:27:32.473Z,4.63
2022-10-04T05:30:24.643Z,5.77
2022-10-04T05:33:14.671Z,4.73
2022-10-04T05:36:12.103Z,5.37
2022-10-04T05:39:14.845Z,4.93
2022-10-04T05:42:26.971Z,6.93
2022-10-04T05:45:21.679Z,5.20
2022-10-04T05:48:09.049Z,5.30
2022-10-04T05:50:55.832Z,5.50
2022-10-04T05:53:42.594Z,5.97
2022-10-04T05:56:31.800Z,5.03
2022-10-04T05:59:38.980Z,5.57
2022-10-04T06:02:51.227Z,5.03
2022-10-04T06:05:43.491Z,5.93
2022-10-04T06:08:59.647Z,5.33
2022-10-04T06:12:04.331Z,4.77
2022-10-04T06:15:28.926Z,4.87
2022-10-04T06:18:21.769Z,4.50
2022-10-04T06:21:36.578Z,5.67
2022-10-04T06:24:34.852Z,5.37
2022-10-04T06:27:31.325Z,5.43
2022-10-04T06:30:19.496Z,4.70
2022-10-04T06:33:20.762Z,5.03
2022-10-04T06:36:34.195Z,5.30
2022-10-04T06:39:47.014Z,5.40
2022-10-04T06:42:56.443Z,5.13
2022-10-04T06:45:50.346Z,5.67
2022-10-04T06:48:54.180Z,5.07
2022-10-04T06:51:52.949Z,4.63
2022-10-04T06:55:06.082Z,5.60
2022-10-04T06:58:10.966Z,5.27
2022-10-04T07:01:06.590Z,4.60
2022-10-04T07:03:53.129Z,5.00
2022-10-04T07:07:20.308Z,5.40
2022-10-04T07:10:35.088Z,5.43
2022-10-04T07:13:33.114Z,5.83
2022-10-04T07:16:28.946Z,5.17
2022-10-04T07:20:00.512Z,5.93
2022-10-04T07:23:02.872Z,8.73
2022-10-04T07:25:54.399Z,6.73
2022-10-04T07:29:03.397Z,4.90
2022-10-04T07:32:21.282Z,5.60
2022-10-04T07:35:10.546Z,5.70
2022-10-04T07:38:12.800Z,5.00
2022-10-04T07:41:12.483Z,4.70
2022-10-04T07:44:05.179Z,4.87
2022-10-04T07:47:00.415Z,5.30
2022-10-04T07:49:50.924Z,5.13
2022-10-04T07:52:48.449Z,5.03
2022-10-04T07:55:44.397Z,4.83
2022-10-04T07:58:46.730Z,5.33
2022-10-04T08:01:44.299Z,4.57
2022-10-04T08:05:07.006Z,4.80
2022-10-04T08:08:14.131Z,5.60
2022-10-04T08:11:31.465Z,5.20
2022-10-04T08:14:30.918Z,5.30
2022-10-04T08:17:47.466Z,5.80
2022-10-04T08:20:56.766Z,6.03
2022-10-04T08:24:11.641Z,7.67
2022-10-04T08:27:27.578Z,5.47
2022-10-04T08:30:17.059Z,5.37
2022-10-04T08:33:22.981Z,6.20
2022-10-04T08:36:18.381Z,5.73
2022-10-04T08:39:30.434Z,5.97
2022-10-04T08:42:58.694Z,5.77
2022-10-04T08:46:04.558Z,6.03
2022-10-04T08:49:12.924Z,5.60
2022-10-04T08:52:37.330Z,7.00
2022-10-04T08:56:05.063Z,5.67
2022-10-04T08:59:20.091Z,5.57
2022-10-04T09:02:15.675Z,6.13
2022-10-04T09:05:27.300Z,5.30
2022-10-04T09:08:35.870Z,4.87
2022-10-04T09:11:30.751Z,5.27
2022-10-04T09:14:45.778Z,5.33
2022-10-04T09:17:50.983Z,5.10
2022-10-04T09:20:49.519Z,5.23
2022-10-04T09:23:57.047Z,4.70
2022-10-04T09:26:46.506Z,4.70
2022-10-04T09:29:49.065Z,4.90
2022-10-04T09:33:06.373Z,4.87
2022-10-04T09:36:20.469Z,5.70
2022-10-04T09:39:30.916Z,4.60
2022-10-04T09:42:35.952Z,4.10
2022-10-04T09:45:37.389Z,4.07
2022-10-04T09:48:36.926Z,4.17
2022-10-04T09:52:06.341Z,4.87
2022-10-04T09:55:05.259Z,4.33
2022-10-04T09:58:23.062Z,4.60
2022-10-04T10:01:18.517Z,3.90
2022-10-04T10:04:29.461Z,4.03
2022-10-04T10:07:34.674Z,3.77
2022-10-04T10:10:55.731Z,4.17
2022-10-04T10:14:19.209Z,3.73
2022-10-04T10:17:21.339Z,3.87
2022-10-04T10:20:36.285Z,4.00
2022-10-04T10:23:37.936Z,4.10
2022-10-04T10:27:02.099Z,3.50
2022-10-04T10:29:59.343Z,3.80
2022-10-04T10:33:07.588Z,3.50
2022-10-04T10:36:23.184Z,3.43
2022-10-04T10:39:23.033Z,3.60
2022-10-04T10:42:27.241Z,3.43
2022-10-04T10:45:21.239Z,3.90
2022-10-04T10:48:58.029Z,4.10
2022-10-04T10:52:22.872Z,3.90
2022-10-04T10:55:44.761Z,3.40
2022-10-04T10:58:50.076Z,2.90
2022-10-04T11:02:10.397Z,3.63
2022-10-04T11:05:23.617Z,3.30
2022-10-04T11:08:30.001Z,3.20
2022-10-04T11:12:04.144Z,3.13
2022-10-04T11:14:53.331Z,2.90
2022-10-04T11:17:58.640Z,2.93
2022-10-04T11:21:12.512Z,2.93
2022-10-04T11:24:14.865Z,3.50
2022-10-04T11:27:20.294Z,2.70
2022-10-04T11:30:25.068Z,3.00
2022-10-04T11:33:29.960Z,3.23
2022-10-04T11:36:22.495Z,2.57
2022-10-04T11:39:27.260Z,2.60
2022-10-04T11:42:32.417Z,2.73
2022-10-04T11:45:38.293Z,3.50
2022-10-04T11:48:37.742Z,2.50
2022-10-04T11:51:53.602Z,2.80
2022-10-04T11:55:06.607Z,2.90
2022-10-04T11:58:14.622Z,2.57
2022-10-04T12:01:32.074Z,2.30
2022-10-04T12:04:30.738Z,2.10
2022-10-04T12:07:38.573Z,2.03
2022-10-04T12:10:33.973Z,2.53
2022-10-04T12:14:06.666Z,2.13
2022-10-04T12:17:28.821Z,2.23
2022-10-04T12:20:28.760Z,3.57
2022-10-04T12:23:21.258Z,1.80
2022-10-04T12:26:41.459Z,2.27
2022-10-04T12:30:00.102Z,2.37
2022-10-04T12:33:10.669Z,2.43
2022-10-04T12:36:38.475Z,2.50
2022-10-04T12:39:31.109Z,2.30
2022-10-04T12:42:45.521Z,2.27
2022-10-04T12:45:57.047Z,2.50
2022-10-04T12:49:05.850Z,2.33
2022-10-04T12:52:15.351Z,2.00
2022-10-04T12:55:26.637Z,2.10
2022-10-04T12:58:43.235Z,2.00
2022-10-04T13:01:44.801Z,2.20
2022-10-04T13:04:53.281Z,2.17
2022-10-04T13:07:48.428Z,2.30
2022-10-04T13:10:59.587Z,2.50
2022-10-04T13:14:07.705Z,2.40
2022-10-04T13:17:28.116Z,2.17
2022-10-04T13:20:39.983Z,2.10
2022-10-04T13:23:36.014Z,2.67
2022-10-04T13:26:25.388Z,2.27
2022-10-04T13:29:47.546Z,2.53
2022-10-04T13:32:50.320Z,2.50
2022-10-04T13:35:49.879Z,3.43
2022-10-04T13:38:54.785Z,2.70
2022-10-04T13:42:17.298Z,2.17
2022-10-04T13:45:29.183Z,2.47
2022-10-04T13:48:44.739Z,2.30
2022-10-04T13:52:19.854Z,2.30
2022-10-04T13:55:37.617Z,2.90
2022-10-04T13:58:39.137Z,2.33
2022-10-04T14:01:25.521Z,2.20
2022-10-04T14:04:42.467Z,2.07
2022-10-04T14:07:37.982Z,2.00
2022-10-04T14:10:43.519Z,2.10
2022-10-04T14:13:57.958Z,2.83
2022-10-04T14:17:00.109Z,2.43
2022-10-04T14:20:02.483Z,2.60
2022-10-04T14:22:48.689Z,2.47
2022-10-04T14:25:51.691Z,2.37
2022-10-04T14:29:02.735Z,2.47
2022-10-04T14:32:08.168Z,2.00
2022-10-04T14:35:05.027Z,2.37
2022-10-04T14:38:04.222Z,2.30
2022-10-04T14:41:02.893Z,2.00
2022-10-04T14:44:28.577Z,2.40
2022-10-04T14:47:34.593Z,2.30
2022-10-04T14:50:27.140Z,1.90
2022-10-04T14:53:36.829Z,1.90
2022-10-04T14:56:48.591Z,2.70
2022-10-04T15:00:03.589Z,1.70
2022-10-04T15:03:02.997Z,2.20
2022-10-04T15:06:10.213Z,2.10
2022-10-04T15:09:24.236Z,2.13
2022-10-04T15:13:05.771Z,2.00
2022-10-04T15:16:01.099Z,1.70
2022-10-04T15:18:56.284Z,2.00
2022-10-04T15:22:07.697Z,1.90
2022-10-04T15:24:55.062Z,1.90
2022-10-04T15:27:50.350Z,2.10
2022-10-04T15:30:57.685Z,1.93
2022-10-04T15:33:54.595Z,2.00
2022-10-04T15:36:47.555Z,3.03
2022-10-04T15:39:53.465Z,2.00
2022-10-04T15:43:11.019Z,1.67
2022-10-04T15:46:19.076Z,2.03
2022-10-04T15:49:29.802Z,2.43
2022-10-04T15:52:38.201Z,1.80
2022-10-04T15:55:37.878Z,2.10
2022-10-04T15:59:02.675Z,1.93
2022-10-04T16:01:55.283Z,2.03
2022-10-04T16:05:24.891Z,2.17
2022-10-04T16:08:41.965Z,2.07
2022-10-04T16:11:34.173Z,2.13
2022-10-04T16:14:56.497Z,1.90
2022-10-04T16:17:48.894Z,2.40
2022-10-04T16:20:38.775Z,1.73
2022-10-04T16:23:31.711Z,1.73
2022-10-04T16:26:19.500Z,2.30
2022-10-04T16:29:30.090Z,1.87
2022-10-04T16:32:30.640Z,1.97
2022-10-04T16:35:29.489Z,1.83
2022-10-04T16:38:25.650Z,1.80
2022-10-04T16:41:16.145Z,2.00
2022-10-04T16:44:04.090Z,2.27
2022-10-04T16:46:52.592Z,2.10
2022-10-04T16:49:50.046Z,2.27
2022-10-04T16:52:58.269Z,2.10
2022-10-04T16:55:56.070Z,2.50
2022-10-04T16:58:49.747Z,1.77
2022-10-04T17:02:21.205Z,2.00
2022-10-04T17:05:22.700Z,2.20
2022-10-04T17:08:15.214Z,2.10
2022-10-04T17:11:41.893Z,2.80
2022-10-04T17:14:50.930Z,2.80
2022-10-04T17:17:49.552Z,3.03
2022-10-04T17:20:42.117Z,3.07
2022-10-04T17:23:50.625Z,2.50
2022-10-04T17:26:50.263Z,2.77
2022-10-04T17:29:48.653Z,2.73
2022-10-04T17:32:55.174Z,4.80
2022-10-04T17:36:05.604Z,6.33
2022-10-04T17:38:54.871Z,4.90
2022-10-04T17:41:50.463Z,4.87
2022-10-04T17:44:40.944Z,4.40
2022-10-04T17:47:56.338Z,4.03
2022-10-04T17:51:20.955Z,4.67
2022-10-04T17:54:31.761Z,4.00
2022-10-04T17:57:25.368Z,4.80
2022-10-04T18:00:14.320Z,3.70
2022-10-04T18:03:10.060Z,3.90
2022-10-04T18:06:01.986Z,3.57
2022-10-04T18:08:57.641Z,4.00
2022-10-04T18:11:53.402Z,3.90
2022-10-04T18:15:06.059Z,3.37
2022-10-04T18:18:10.239Z,3.90
2022-10-04T18:20:56.581Z,3.53
2022-10-04T18:23:56.039Z,3.40
2022-10-04T18:26:59.635Z,3.80
2022-10-04T18:30:02.703Z,3.30
2022-10-04T18:32:55.805Z,3.73
2022-10-04T18:36:05.172Z,3.47
2022-10-04T18:39:14.486Z,3.63
2022-10-04T18:42:23.410Z,3.60
2022-10-04T18:45:30.981Z,3.50
2022-10-04T18:48:19.473Z,4.23
2022-10-04T18:51:30.096Z,3.57
2022-10-04T18:54:35.269Z,3.60
2022-10-04T18:58:00.936Z,4.03
2022-10-04T19:01:16.961Z,4.37
2022-10-04T19:04:12.966Z,4.23
2022-10-04T19:07:20.886Z,4.57
2022-10-04T19:10:16.706Z,4.40
2022-10-04T19:13:20.316Z,5.10
2022-10-04T19:16:16.039Z,4.73
2022-10-04T19:19:25.977Z,4.13
2022-10-04T19:23:03.551Z,4.60
2022-10-04T19:26:26.265Z,4.20
2022-10-04T19:29:26.407Z,4.57
2022-10-04T19:32:18.758Z,4.97
2022-10-04T19:35:34.262Z,4.43
2022-10-04T19:38:32.495Z,4.43
2022-10-04T19:41:27.854Z,4.30
2022-10-04T19:44:51.959Z,3.77
2022-10-04T19:48:11.060Z,4.43
2022-10-04T19:51:15.999Z,4.00
2022-10-04T19:54:15.983Z,5.27
2022-10-04T19:57:05.401Z,4.67
2022-10-04T19:59:51.878Z,4.90
2022-10-04T20:02:45.968Z,4.00
2022-10-04T20:05:46.055Z,4.97
2022-10-04T20:08:47.636Z,4.23
2022-10-04T20:11:37.253Z,5.30
2022-10-04T20:14:23.797Z,4.10
2022-10-04T20:17:10.056Z,4.73
2022-10-04T20:19:56.523Z,5.07
2022-10-04T20:22:52.278Z,5.00
2022-10-04T20:25:45.505Z,4.50
2022-10-04T20:28:41.746Z,4.40
2022-10-04T20:31:27.951Z,4.60
2022-10-04T20:34:36.861Z,4.90
2022-10-04T20:37:45.125Z,4.40
2022-10-04T20:40:34.731Z,4.90
2022-10-04T20:43:26.506Z,4.97
2022-10-04T20:46:23.504Z,4.70
2022-10-04T20:49:16.645Z,5.53
2022-10-04T20:52:03.003Z,5.27
2022-10-04T20:54:53.433Z,6.23
2022-10-04T20:57:40.647Z,4.27
2022-10-04T21:00:29.360Z,4.67
2022-10-04T21:03:18.212Z,4.60
2022-10-04T21:06:08.334Z,4.60
2022-10-04T21:08:54.959Z,4.57
2022-10-04T21:11:46.192Z,5.27
2022-10-04T21:14:37.589Z,5.17
2022-10-04T21:17:30.152Z,5.20
2022-10-04T21:21:04.544Z,5.47
2022-10-04T21:23:50.924Z,5.47
2022-10-04T21:26:37.396Z,5.73
2022-10-04T21:29:23.636Z,4.73
2022-10-04T21:32:10.474Z,5.20
2022-10-04T21:34:57.116Z,5.17
2022-10-04T21:37:43.349Z,5.53
2022-10-04T21:40:29.721Z,6.60
2022-10-04T21:43:16.151Z,6.00
2022-10-04T21:46:02.546Z,5.00
2022-10-04T21:48:49.460Z,4.93
2022-10-04T21:51:37.255Z,4.67
2022-10-04T21:54:23.753Z,6.50
2022-10-04T21:57:10.775Z,4.80
2022-10-04T21:59:57.146Z,5.03
2022-10-04T22:02:43.567Z,4.37
2022-10-04T22:05:30.535Z,5.47
2022-10-04T22:08:17.194Z,5.23
2022-10-04T22:11:03.629Z,5.53
2022-10-04T22:13:51.095Z,5.30
2022-10-04T22:16:37.774Z,4.37
2022-10-04T22:19:24.216Z,4.43
2022-10-04T22:22:17.408Z,4.40
2022-10-04T22:25:13.542Z,4.83
2022-10-04T22:28:00.197Z,4.80
2022-10-04T22:30:47.379Z,4.60
2022-10-04T22:33:35.428Z,4.80
2022-10-04T22:36:32.671Z,5.20
2022-10-04T22:39:20.515Z,6.37
2022-10-04T22:42:07.520Z,5.40
2022-10-04T22:44:53.915Z,6.60
2022-10-04T22:47:40.087Z,6.17
2022-10-04T22:50:33.527Z,5.13
2022-10-04T22:53:22.204Z,4.93
2022-10-04T22:56:09.182Z,5.13
2022-10-04T22:58:55.653Z,5.30
2022-10-04T23:01:42.944Z,6.73
2022-10-04T23:04:29.312Z,4.30
2022-10-04T23:07:15.920Z,4.67
2022-10-04T23:10:02.337Z,4.33
2022-10-04T23:12:54.948Z,4.30
2022-10-04T23:15:41.937Z,4.70
2022-10-04T23:18:30.270Z,4.50
2022-10-04T23:21:22.674Z,4.93
2022-10-04T23:24:18.708Z,4.63
2022-10-04T23:27:17.259Z,4.30
2022-10-04T23:30:04.244Z,4.13
2022-10-04T23:32:53.187Z,4.20
2022-10-04T23:35:39.591Z,4.47
2022-10-04T23:38:25.978Z,4.47
2022-10-04T23:41:12.164Z,4.20
2022-10-04T23:43:58.513Z,5.27
2022-10-04T23:46:45.158Z,4.50
2022-10-04T23:49:31.901Z,4.60
2022-10-04T23:52:24.916Z,4.13
2022-10-04T23:55:19.375Z,4.80
2022-10-04T23:58:13.681Z,4.90
